Time;durP1;ratioP1;P1;durP2;ratioP2;P2;SDS_P1;SDS_P2;PMS_P1;PMS_P2;Temp;Humidity;BMP_temperature;BMP_pressure;BME280_temperature;BME280_humidity;BME280_pressure;Samples;Min_cycle;Max_cycle;Signal;HPM_P1;HPM_P2
2021/12/27 00:00:47;;;;;;;69.50;41.38;;;;;;;2.15;100.00;100062.56;5075778;28;20025;-68
2021/12/27 00:03:12;;;;;;;71.78;42.13;;;;;;;2.17;100.00;100055.69;5075659;28;20028;-69
2021/12/27 00:05:38;;;;;;;64.35;39.80;;;;;;;2.17;100.00;100055.69;5075878;28;20365;-69
2021/12/27 00:08:04;;;;;;;72.35;42.33;;;;;;;2.17;100.00;100055.69;5076024;28;20027;-69
2021/12/27 00:10:29;;;;;;;67.35;40.47;;;;;;;2.19;100.00;100061.81;5075471;28;20040;-69
2021/12/27 00:12:56;;;;;;;68.75;42.38;;;;;;;2.19;100.00;100058.31;5075705;28;20375;-68
2021/12/27 00:15:22;;;;;;;70.10;42.70;;;;;;;2.20;100.00;100052.25;5075526;28;20024;-68
2021/12/27 00:17:48;;;;;;;68.00;43.00;;;;;;;2.21;100.00;100052.31;5075500;28;20020;-69
2021/12/27 00:20:15;;;;;;;72.40;43.67;;;;;;;2.22;100.00;100054.06;5074148;28;20517;-68
2021/12/27 00:22:42;;;;;;;74.60;45.60;;;;;;;2.24;100.00;100061.91;5075617;28;20039;-69
2021/12/27 00:25:08;;;;;;;75.03;45.40;;;;;;;2.25;100.00;100054.13;5071435;28;20051;-69
2021/12/27 00:27:33;;;;;;;75.30;45.58;;;;;;;2.25;100.00;100048.91;5075089;28;20035;-68
2021/12/27 00:29:59;;;;;;;71.68;43.42;;;;;;;2.28;100.00;100048.13;5075276;28;20115;-70
2021/12/27 00:32:25;;;;;;;74.07;44.78;;;;;;;2.29;100.00;100049.00;5074985;28;20108;-68
2021/12/27 00:34:50;;;;;;;72.38;44.50;;;;;;;2.29;100.00;100047.28;5075060;28;20123;-71
2021/12/27 00:37:15;;;;;;;71.90;44.00;;;;;;;2.30;100.00;100038.63;5075311;28;20029;-69
2021/12/27 00:39:41;;;;;;;73.03;43.63;;;;;;;2.30;100.00;100040.31;5075374;28;20470;-69
2021/12/27 00:42:06;;;;;;;71.22;42.95;;;;;;;2.32;100.00;100034.31;5071126;28;20078;-69
2021/12/27 00:44:33;;;;;;;71.97;44.45;;;;;;;2.33;100.00;100036.09;5075113;28;20090;-68
2021/12/27 00:46:58;;;;;;;68.90;42.63;;;;;;;2.34;100.00;100024.78;5074691;28;20032;-68
2021/12/27 00:49:25;;;;;;;68.15;42.67;;;;;;;2.35;100.00;100018.72;5074007;28;20028;-67
2021/12/27 00:51:50;;;;;;;64.82;41.15;;;;;;;2.37;100.00;100017.03;5073649;28;20024;-71
2021/12/27 00:54:16;;;;;;;67.07;41.22;;;;;;;2.37;100.00;100014.41;5074767;28;20379;-71
2021/12/27 00:56:42;;;;;;;67.55;41.45;;;;;;;2.38;100.00;100003.16;5074885;28;20021;-67
2021/12/27 00:59:07;;;;;;;64.65;39.45;;;;;;;2.37;100.00;100001.38;5075201;28;20029;-70
2021/12/27 01:01:33;;;;;;;66.07;41.65;;;;;;;2.38;100.00;100003.16;5074521;28;20036;-68
2021/12/27 01:03:59;;;;;;;67.15;41.88;;;;;;;2.40;100.00;100001.47;5073355;28;20032;-71
2021/12/27 01:06:25;;;;;;;65.38;40.83;;;;;;;2.43;100.00;100006.78;5074485;28;20383;-71
2021/12/27 01:08:50;;;;;;;68.15;42.42;;;;;;;2.44;100.00;100000.69;5074422;28;20032;-70
2021/12/27 01:13:47;;;;;;;64.70;41.30;;;;;;;2.48;100.00;100003.41;5074428;28;20470;-71
2021/12/27 01:16:14;;;;;;;67.03;41.15;;;;;;;2.48;100.00;100003.41;5074212;28;20046;-67
2021/12/27 01:18:41;;;;;;;62.92;39.60;;;;;;;2.50;100.00;100004.28;5074026;28;20060;-70
2021/12/27 01:21:07;;;;;;;62.38;40.45;;;;;;;2.50;100.00;100001.69;5070308;28;20048;-71
2021/12/27 01:23:33;;;;;;;64.43;40.25;;;;;;;2.50;100.00;100001.69;5074186;28;20036;-71
2021/12/27 01:25:58;;;;;;;63.53;40.95;;;;;;;2.51;100.00;100003.47;5074362;28;20468;-70
2021/12/27 01:28:24;;;;;;;63.80;40.70;;;;;;;2.54;100.00;99993.97;5074003;28;20102;-70
2021/12/27 01:30:50;;;;;;;64.68;40.53;;;;;;;2.54;100.00;99988.75;5073906;28;20046;-70
2021/12/27 01:33:17;;;;;;;64.40;40.63;;;;;;;2.56;100.00;99997.50;5074301;28;20031;-70
2021/12/27 01:35:43;;;;;;;61.25;39.13;;;;;;;2.57;100.00;99998.38;5073902;28;20533;-71
2021/12/27 01:38:10;;;;;;;63.58;41.00;;;;;;;2.60;100.00;99999.31;5073895;28;20031;-70
2021/12/27 01:40:36;;;;;;;64.68;40.50;;;;;;;2.61;100.00;99998.47;5073964;28;20024;-71
2021/12/27 01:43:10;;;;;;;63.72;40.65;;;;;;;2.64;100.00;99996.81;5073780;28;20060;-71
2021/12/27 01:45:41;;;;;;;63.92;40.00;;;;;;;2.65;100.00;99989.00;5073676;28;20025;-71
2021/12/27 01:48:08;;;;;;;62.05;39.80;;;;;;;2.67;100.00;99986.44;5073520;28;20844;-71
2021/12/27 01:50:36;;;;;;;61.80;39.25;;;;;;;2.68;100.00;99985.56;5074006;28;20028;-71
2021/12/27 01:53:02;;;;;;;61.85;40.40;;;;;;;2.70;100.00;99989.09;5073591;28;20074;-71
2021/12/27 01:55:28;;;;;;;63.67;40.30;;;;;;;2.70;100.00;99982.16;5073536;28;20413;-70
2021/12/27 01:57:53;;;;;;;63.95;41.45;;;;;;;2.70;100.00;99979.53;5073626;28;20035;-71
2021/12/27 02:00:19;;;;;;;64.55;40.00;;;;;;;2.71;100.00;99976.09;5073280;28;20490;-70
2021/12/27 02:02:46;;;;;;;62.40;40.10;;;;;;;2.73;100.00;99979.59;5071091;28;20028;-71
2021/12/27 02:05:12;;;;;;;61.67;39.47;;;;;;;2.73;100.00;99984.81;5072221;28;20024;-70
2021/12/27 02:07:38;;;;;;;63.13;40.20;;;;;;;2.74;100.00;99981.38;5069243;28;20040;-71
2021/12/27 02:10:03;;;;;;;61.20;39.15;;;;;;;2.75;100.00;99972.72;5073427;28;20117;-70
2021/12/27 02:12:30;;;;;;;62.80;39.42;;;;;;;2.74;100.00;99977.91;5073234;28;20024;-71
2021/12/27 02:14:56;;;;;;;60.38;37.65;;;;;;;2.75;100.00;99970.09;5073139;28;20036;-71
2021/12/27 02:17:22;;;;;;;59.70;37.33;;;;;;;2.75;100.00;99977.94;5073074;28;20444;-70
2021/12/27 02:19:54;;;;;;;64.72;40.45;;;;;;;2.75;100.00;99974.41;5072905;28;20127;-71
2021/12/27 02:22:21;;;;;;;60.08;38.42;;;;;;;2.75;100.00;99972.72;5072999;28;20044;-70
2021/12/27 02:24:47;;;;;;;60.92;38.47;;;;;;;2.76;100.00;99974.44;5072905;28;20024;-70
2021/12/27 02:27:15;;;;;;;60.88;38.33;;;;;;;2.76;100.00;99982.28;5073555;28;20031;-70
2021/12/27 02:29:40;;;;;;;65.47;39.45;;;;;;;2.78;100.00;99977.09;5072829;28;20505;-71
2021/12/27 02:32:07;;;;;;;65.70;40.17;;;;;;;2.77;100.00;99971.00;5071449;28;20032;-70
2021/12/27 02:34:32;;;;;;;64.47;39.83;;;;;;;2.81;100.00;99971.06;5073286;28;20048;-71
2021/12/27 02:36:59;;;;;;;65.43;41.00;;;;;;;2.81;100.00;99964.13;5072763;28;20020;-70
2021/12/27 02:39:25;;;;;;;63.70;39.65;;;;;;;2.82;100.00;99973.69;5072746;28;20030;-70
2021/12/27 02:41:51;;;;;;;65.22;40.35;;;;;;;2.85;100.00;99980.72;5072926;28;20487;-71
2021/12/27 02:44:17;;;;;;;64.10;39.45;;;;;;;2.86;100.00;99982.50;5072679;28;20028;-71
2021/12/27 02:46:42;;;;;;;64.80;39.83;;;;;;;2.88;100.00;99975.56;5072814;28;20027;-70
2021/12/27 02:49:07;;;;;;;64.13;40.13;;;;;;;2.88;100.00;99979.03;5072810;28;20039;-71
2021/12/27 02:51:33;;;;;;;64.45;41.05;;;;;;;2.89;100.00;99969.50;5072695;28;20073;-70
2021/12/27 02:53:58;;;;;;;65.43;39.85;;;;;;;2.89;100.00;99959.94;5072962;28;20111;-70
2021/12/27 02:56:23;;;;;;;66.28;40.55;;;;;;;2.89;100.00;99956.44;5072813;28;20020;-71
2021/12/27 02:58:49;;;;;;;61.75;39.90;;;;;;;2.90;100.00;99951.25;5072614;28;20036;-70
2021/12/27 03:01:21;;;;;;;63.28;39.13;;;;;;;2.90;100.00;99955.63;5072603;28;20030;-68
2021/12/27 03:03:47;;;;;;;64.72;40.53;;;;;;;2.91;100.00;99957.34;5072565;28;20024;-67
2021/12/27 03:06:13;;;;;;;62.63;38.88;;;;;;;2.90;100.00;99961.72;5072385;28;20456;-69
2021/12/27 03:08:40;;;;;;;63.95;39.30;;;;;;;2.92;100.00;99961.75;5068470;28;20036;-68
2021/12/27 03:11:07;;;;;;;65.70;39.97;;;;;;;2.93;100.00;99956.53;5072385;28;20028;-69
2021/12/27 03:13:38;;;;;;;64.15;39.13;;;;;;;2.95;100.00;99948.75;5074487;28;20047;-68
2021/12/27 03:16:10;;;;;;;61.50;38.78;;;;;;;2.94;100.00;99944.34;5078970;28;20032;-67
2021/12/27 03:18:37;;;;;;;64.80;39.65;;;;;;;2.95;100.00;99941.78;5077691;28;20040;-68
2021/12/27 03:21:04;;;;;;;63.78;38.75;;;;;;;2.95;100.00;99940.91;5079171;28;20467;-68
2021/12/27 03:23:30;;;;;;;62.42;38.13;;;;;;;2.96;100.00;99935.72;5078915;28;20036;-69
2021/12/27 03:25:55;;;;;;;60.72;37.78;;;;;;;2.97;100.00;99942.72;5079553;28;20358;-69
2021/12/27 03:28:21;;;;;;;65.28;39.35;;;;;;;3.00;100.00;99943.59;5078938;28;20535;-69
2021/12/27 03:30:47;;;;;;;64.43;40.42;;;;;;;3.00;100.00;99941.91;5078613;28;20037;-68
2021/12/27 03:33:14;;;;;;;65.22;39.10;;;;;;;3.02;100.00;99939.31;5079437;28;20086;-67
2021/12/27 03:35:40;;;;;;;63.45;38.92;;;;;;;3.04;100.00;99932.38;5074865;28;20025;-68
2021/12/27 03:38:09;;;;;;;61.90;38.72;;;;;;;3.05;100.00;99940.25;5078816;28;20486;-68
2021/12/27 03:40:36;;;;;;;62.53;38.10;;;;;;;3.09;100.00;99941.22;5078982;28;20463;-69
2021/12/27 03:43:02;;;;;;;66.05;40.08;;;;;;;3.10;100.00;99938.63;5078864;28;20410;-70
2021/12/27 03:45:30;;;;;;;63.33;38.03;;;;;;;3.10;100.00;99941.25;5078712;28;20025;-70
2021/12/27 03:47:56;;;;;;;62.50;37.88;;;;;;;3.11;100.00;99937.75;5078957;28;20020;-71
2021/12/27 03:50:24;;;;;;;64.72;39.65;;;;;;;3.13;100.00;99930.84;5078622;28;20116;-71
2021/12/27 03:52:51;;;;;;;61.40;38.83;;;;;;;3.14;100.00;99926.50;5078680;28;20028;-70
2021/12/27 03:55:16;;;;;;;60.90;37.10;;;;;;;3.16;100.00;99921.31;5078742;28;20467;-71
2021/12/27 03:57:50;;;;;;;62.38;37.97;;;;;;;3.16;100.00;99922.19;5078741;28;20037;-70
2021/12/27 04:02:52;;;;;;;60.25;38.25;;;;;;;3.14;100.00;99911.69;5079213;28;20056;-70
2021/12/27 04:05:19;;;;;;;59.47;36.53;;;;;;;3.16;100.00;99903.00;5078706;28;20375;-70
2021/12/27 04:07:47;;;;;;;62.05;37.95;;;;;;;3.16;100.00;99900.41;5078543;28;20074;-70
2021/12/27 04:10:14;;;;;;;62.70;38.00;;;;;;;3.18;100.00;99906.56;5078511;28;20024;-71
2021/12/27 04:12:40;;;;;;;66.13;39.30;;;;;;;3.21;100.00;99904.88;5074728;28;20537;-71
2021/12/27 04:15:08;;;;;;;64.18;38.55;;;;;;;3.23;100.00;99902.28;5078405;28;20032;-71
2021/12/27 04:17:34;;;;;;;63.97;39.53;;;;;;;3.25;100.00;99891.03;5078268;28;20042;-70
2021/12/27 04:19:59;;;;;;;65.97;39.60;;;;;;;3.26;100.00;99895.41;5078470;28;20040;-72
2021/12/27 04:22:25;;;;;;;65.55;38.60;;;;;;;3.26;100.00;99895.41;5078487;28;20028;-69
2021/12/27 04:24:50;;;;;;;63.33;38.75;;;;;;;3.27;100.00;99893.66;5075790;28;20020;-70
2021/12/27 04:27:16;;;;;;;64.20;38.20;;;;;;;3.27;100.00;99891.91;5075705;28;20036;-69
2021/12/27 04:29:41;;;;;;;61.97;38.03;;;;;;;3.29;100.00;99886.72;5074897;28;20032;-70
2021/12/27 04:32:07;;;;;;;63.67;38.72;;;;;;;3.29;100.00;99887.63;5075379;28;20024;-67
2021/12/27 04:34:33;;;;;;;66.35;39.60;;;;;;;3.31;100.00;99887.66;5074123;28;20032;-70
2021/12/27 04:36:58;;;;;;;65.32;38.25;;;;;;;3.32;100.00;99873.75;5074948;28;20031;-68
2021/12/27 04:39:23;;;;;;;60.08;37.03;;;;;;;3.30;100.00;99884.13;5075269;28;20032;-71
2021/12/27 04:41:49;;;;;;;62.40;37.88;;;;;;;3.31;100.00;99880.69;5075257;28;20051;-70
2021/12/27 04:44:15;;;;;;;63.50;38.22;;;;;;;3.35;100.00;99881.63;5074852;28;20096;-67
2021/12/27 04:46:41;;;;;;;62.38;38.22;;;;;;;3.36;100.00;99870.31;5075074;28;20020;-71
2021/12/27 04:49:06;;;;;;;66.70;39.53;;;;;;;3.36;100.00;99872.91;5074740;28;20116;-71
2021/12/27 04:51:31;;;;;;;64.25;39.55;;;;;;;3.39;100.00;99875.59;5074862;28;20119;-72
2021/12/27 04:53:57;;;;;;;64.18;38.40;;;;;;;3.39;100.00;99869.47;5074937;28;20029;-69
2021/12/27 04:56:22;;;;;;;60.35;36.60;;;;;;;3.40;100.00;99866.03;5074595;28;20059;-71
2021/12/27 04:58:48;;;;;;;61.00;36.85;;;;;;;3.39;100.00;99867.75;5074719;28;20040;-68
2021/12/27 05:01:14;;;;;;;60.92;38.10;;;;;;;3.41;100.00;99871.28;5075029;28;20445;-71
2021/12/27 05:03:40;;;;;;;62.33;38.33;;;;;;;3.43;100.00;99866.09;5070472;28;20056;-68
2021/12/27 05:06:06;;;;;;;61.33;37.63;;;;;;;3.43;100.00;99859.13;5074477;28;20032;-71
2021/12/27 05:08:31;;;;;;;61.78;38.03;;;;;;;3.42;100.00;99857.38;5074580;28;20028;-68
2021/12/27 05:10:57;;;;;;;62.92;39.08;;;;;;;3.44;100.00;99866.09;5074499;28;20036;-71
2021/12/27 05:13:22;;;;;;;58.17;36.92;;;;;;;3.46;100.00;99861.78;5074581;28;20097;-72
2021/12/27 05:15:47;;;;;;;61.42;37.35;;;;;;;3.47;100.00;99860.06;5074234;28;20490;-71
2021/12/27 05:18:13;;;;;;;61.08;36.92;;;;;;;3.48;100.00;99867.94;5074191;28;20050;-71
2021/12/27 05:20:38;;;;;;;62.35;37.47;;;;;;;3.48;100.00;99862.69;5074281;28;20040;-70
2021/12/27 05:23:04;;;;;;;59.53;36.33;;;;;;;3.50;100.00;99865.34;5074163;28;20487;-71
2021/12/27 05:25:30;;;;;;;61.95;37.28;;;;;;;3.52;100.00;99863.63;5074281;28;20364;-71
2021/12/27 05:27:55;;;;;;;63.63;37.03;;;;;;;3.54;100.00;99859.31;5074342;28;20035;-70
2021/12/27 05:30:21;;;;;;;62.55;39.20;;;;;;;3.56;100.00;99865.44;5073928;28;20028;-70
2021/12/27 05:32:47;;;;;;;60.47;36.13;;;;;;;3.59;100.00;99867.22;5074206;28;20036;-70
2021/12/27 05:35:14;;;;;;;60.72;37.33;;;;;;;3.60;100.00;99851.56;5074118;28;20025;-71
2021/12/27 05:37:40;;;;;;;61.97;37.78;;;;;;;3.62;100.00;99849.84;5073678;28;20522;-71
2021/12/27 05:40:08;;;;;;;63.10;37.35;;;;;;;3.64;100.00;99847.25;5074115;28;20059;-70
2021/12/27 05:42:34;;;;;;;62.42;37.08;;;;;;;3.67;100.00;99845.59;5074062;28;20383;-70
2021/12/27 05:45:00;;;;;;;61.60;37.67;;;;;;;3.69;100.00;99836.91;5073672;28;20120;-71
2021/12/27 05:47:26;;;;;;;59.25;36.35;;;;;;;3.70;100.00;99842.16;5073531;28;20035;-71
2021/12/27 05:49:51;;;;;;;60.15;36.15;;;;;;;3.72;100.00;99844.78;5073904;28;20020;-70
2021/12/27 05:52:17;;;;;;;59.90;37.63;;;;;;;3.74;100.00;99846.59;5073597;28;20020;-68
2021/12/27 05:54:42;;;;;;;60.35;36.78;;;;;;;3.75;100.00;99850.06;5073522;28;20027;-69
2021/12/27 05:57:08;;;;;;;58.50;36.08;;;;;;;3.76;100.00;99850.09;5073958;28;20460;-71
2021/12/27 05:59:33;;;;;;;57.40;35.10;;;;;;;3.78;100.00;99850.97;5072019;28;20069;-70
2021/12/27 06:01:58;;;;;;;58.17;35.92;;;;;;;3.79;100.00;99857.97;5073553;28;20064;-67
2021/12/27 06:04:24;;;;;;;58.47;35.67;;;;;;;3.81;100.00;99845.78;5073631;28;20021;-71
2021/12/27 06:06:49;;;;;;;60.55;35.97;;;;;;;3.82;100.00;99855.41;5073372;28;20033;-70
2021/12/27 06:09:14;;;;;;;57.60;35.75;;;;;;;3.85;100.00;99851.97;5073677;28;20024;-70
2021/12/27 06:11:40;;;;;;;56.55;34.80;;;;;;;3.87;100.00;99849.38;5073169;28;20159;-69
2021/12/27 06:14:05;;;;;;;57.45;35.55;;;;;;;3.89;100.00;99847.66;5073054;28;20027;-68
2021/12/27 06:16:30;;;;;;;56.35;33.85;;;;;;;3.88;100.00;99843.31;5072298;28;20040;-70
2021/12/27 06:18:56;;;;;;;54.92;33.15;;;;;;;3.89;100.00;99843.31;5072970;28;20080;-71
2021/12/27 06:21:21;;;;;;;56.63;35.45;;;;;;;3.90;100.00;99846.81;5073125;28;20024;-70
2021/12/27 06:23:47;;;;;;;56.03;35.03;;;;;;;3.89;100.00;99853.78;5073302;28;20414;-72
2021/12/27 06:26:12;;;;;;;56.55;34.90;;;;;;;3.89;100.00;99851.16;5067753;28;20029;-75
2021/12/27 06:28:38;;;;;;;57.47;35.00;;;;;;;3.93;100.00;99849.47;5071301;28;20091;-73
2021/12/27 06:31:04;;;;;;;56.10;35.28;;;;;;;3.97;100.00;99846.91;5071462;28;20100;-68
2021/12/27 06:33:30;;;;;;;57.40;36.08;;;;;;;3.97;100.00;99841.69;5071324;28;20104;-68
2021/12/27 06:35:56;;;;;;;58.92;36.17;;;;;;;3.98;100.00;99843.44;5071658;28;20527;-67
2021/12/27 06:38:22;;;;;;;58.20;35.30;;;;;;;4.01;100.00;99840.00;5071766;28;20424;-66
2021/12/27 06:40:51;;;;;;;58.72;35.85;;;;;;;4.03;100.00;99830.44;5070840;28;20031;-69
2021/12/27 06:43:17;;;;;;;60.33;35.80;;;;;;;4.04;100.00;99832.22;5070811;28;20024;-69
2021/12/27 06:45:43;;;;;;;56.47;34.67;;;;;;;4.07;100.00;99831.38;5071607;28;20112;-68
2021/12/27 06:48:08;;;;;;;56.72;33.92;;;;;;;4.06;100.00;99830.47;5070111;28;20029;-70
2021/12/27 06:50:34;;;;;;;58.03;34.55;;;;;;;4.08;100.00;99830.50;5070703;28;20086;-66
2021/12/27 06:52:59;;;;;;;58.15;34.47;;;;;;;4.10;100.00;99826.19;5070940;28;20115;-68
2021/12/27 06:55:25;;;;;;;60.22;33.97;;;;;;;4.12;100.00;99827.06;5071165;28;20036;-70
2021/12/27 06:57:50;;;;;;;60.95;35.63;;;;;;;4.13;100.00;99821.88;5071106;28;20060;-68
2021/12/27 07:00:17;;;;;;;60.53;36.05;;;;;;;4.16;100.00;99816.69;5070487;28;20086;-68
2021/12/27 07:02:43;;;;;;;57.58;34.95;;;;;;;4.14;100.00;99813.16;5070455;28;20111;-70
2021/12/27 07:05:10;;;;;;;55.50;32.97;;;;;;;4.14;100.00;99813.16;5071312;28;20024;-70
2021/12/27 07:07:35;;;;;;;54.85;33.65;;;;;;;4.11;100.00;99813.13;5070866;28;20027;-70
2021/12/27 07:10:01;;;;;;;57.92;34.35;;;;;;;4.14;100.00;99804.47;5070657;28;20042;-70
2021/12/27 07:12:26;;;;;;;57.70;33.30;;;;;;;4.13;100.00;99805.31;5071022;28;20154;-70
2021/12/27 07:14:53;;;;;;;56.33;33.28;;;;;;;4.06;100.00;99791.25;5070888;28;20036;-70
2021/12/27 07:17:19;;;;;;;58.20;33.55;;;;;;;4.08;100.00;99805.25;5070854;28;20025;-71
2021/12/27 07:19:44;;;;;;;57.45;33.22;;;;;;;4.08;100.00;99805.25;5070447;28;20049;-70
2021/12/27 07:22:09;;;;;;;58.70;34.25;;;;;;;4.09;100.00;99803.50;5070537;28;20024;-70
2021/12/27 07:24:35;;;;;;;58.17;33.50;;;;;;;4.09;100.00;99801.78;5070537;28;20024;-70
2021/12/27 07:27:00;;;;;;;57.67;32.63;;;;;;;4.05;100.00;99802.59;5071306;28;20029;-70
2021/12/27 07:29:26;;;;;;;56.72;31.75;;;;;;;4.01;100.00;99795.56;5071933;28;20071;-70
2021/12/27 07:31:51;;;;;;;59.53;32.58;;;;;;;3.97;100.00;99796.38;5072029;28;20025;-70
2021/12/27 07:34:19;;;;;;;57.20;32.13;;;;;;;3.94;100.00;99806.78;5072272;28;20414;-69
2021/12/27 07:36:47;;;;;;;56.55;32.75;;;;;;;3.89;100.00;99798.88;5071779;28;20414;-70
2021/12/27 07:39:14;;;;;;;58.13;33.50;;;;;;;3.88;100.00;99798.84;5068189;28;20035;-70
2021/12/27 07:41:39;;;;;;;55.80;32.20;;;;;;;3.86;100.00;99796.22;5072564;28;20051;-67
2021/12/27 07:44:05;;;;;;;58.05;32.83;;;;;;;3.85;100.00;99799.69;5072264;28;20029;-70
2021/12/27 07:46:30;;;;;;;58.47;32.63;;;;;;;3.75;100.00;99806.50;5068812;28;20464;-70
2021/12/27 07:48:56;;;;;;;60.78;33.08;;;;;;;3.75;100.00;99809.09;5070541;28;20491;-73
2021/12/27 07:51:21;;;;;;;62.78;34.40;;;;;;;3.78;100.00;99806.53;5070134;28;20383;-73
2021/12/27 07:53:46;;;;;;;63.83;34.35;;;;;;;3.83;100.00;99811.88;5070757;28;20032;-72
2021/12/27 07:56:12;;;;;;;63.97;35.25;;;;;;;3.84;100.00;99811.88;5070867;28;20020;-72
2021/12/27 07:58:38;;;;;;;60.75;34.58;;;;;;;3.91;100.00;99805.00;5067346;28;20468;-70
2021/12/27 08:01:03;;;;;;;62.47;33.75;;;;;;;3.91;100.00;99804.13;5072867;28;20012;-68
2021/12/27 08:03:29;;;;;;;58.63;32.65;;;;;;;3.96;100.00;99803.34;5074106;28;20048;-68
2021/12/27 08:05:54;;;;;;;57.17;32.88;;;;;;;3.94;100.00;99806.78;5074248;28;20112;-68
2021/12/27 08:08:20;;;;;;;57.85;32.83;;;;;;;3.83;100.00;99799.66;5073608;28;20065;-69
2021/12/27 08:10:46;;;;;;;56.83;33.10;;;;;;;3.78;100.00;99816.13;5073387;28;20033;-70
2021/12/27 08:13:11;;;;;;;54.15;32.50;;;;;;;3.72;100.00;99811.69;5071108;28;20021;-70
2021/12/27 08:15:38;;;;;;;57.08;32.22;;;;;;;3.70;100.00;99823.84;5074253;28;20035;-70
2021/12/27 08:18:03;;;;;;;57.42;32.58;;;;;;;3.75;100.00;99823.94;5073810;28;20028;-70
2021/12/27 08:20:29;;;;;;;62.08;34.35;;;;;;;3.78;100.00;99818.75;5073668;28;20125;-70
2021/12/27 08:22:54;;;;;;;61.22;34.03;;;;;;;3.83;100.00;99822.31;5073850;28;20037;-70
2021/12/27 08:25:20;;;;;;;61.20;33.45;;;;;;;3.87;100.00;99812.78;5073315;28;20036;-68
2021/12/27 08:27:46;;;;;;;58.42;33.17;;;;;;;3.91;100.00;99810.22;5075122;28;20024;-68
2021/12/27 08:30:12;;;;;;;60.35;34.25;;;;;;;3.97;100.00;99819.91;5075277;28;20071;-69
2021/12/27 08:32:40;;;;;;;59.13;34.17;;;;;;;4.01;100.00;99816.47;5074924;28;20486;-69
2021/12/27 08:35:07;;;;;;;57.05;33.38;;;;;;;4.01;100.00;99811.25;5075316;28;20364;-68
2021/12/27 08:37:33;;;;;;;57.67;32.53;;;;;;;4.01;100.00;99798.16;5071086;28;20032;-69
2021/12/27 08:39:59;;;;;;;55.47;32.60;;;;;;;4.03;100.00;99799.06;5074777;28;20031;-70
2021/12/27 08:42:25;;;;;;;52.47;31.45;;;;;;;4.01;100.00;99796.41;5074757;28;20467;-70
2021/12/27 08:44:51;;;;;;;52.45;29.92;;;;;;;4.01;100.00;99799.03;5074864;28;20111;-70
2021/12/27 08:47:17;;;;;;;48.67;29.98;;;;;;;3.99;100.00;99797.25;5075074;28;20064;-70
2021/12/27 08:49:43;;;;;;;51.58;30.95;;;;;;;3.97;100.00;99788.50;5075181;28;20028;-70
2021/12/27 08:52:08;;;;;;;51.13;30.27;;;;;;;3.98;100.00;99780.69;5075150;28;20028;-70
2021/12/27 08:54:33;;;;;;;49.85;31.73;;;;;;;4.01;100.00;99778.13;5074855;28;20387;-71
2021/12/27 08:56:59;;;;;;;49.53;29.98;;;;;;;4.06;100.00;99774.69;5075021;28;20103;-71
2021/12/27 08:59:24;;;;;;;48.70;29.95;;;;;;;4.08;100.00;99765.13;5074665;28;20379;-70
2021/12/27 09:01:50;;;;;;;49.65;30.90;;;;;;;4.27;100.00;99769.75;5074409;28;20107;-70
2021/12/27 09:04:16;;;;;;;44.85;28.40;;;;;;;4.42;100.00;99761.19;5074823;28;20029;-70
2021/12/27 09:06:41;;;;;;;41.85;27.27;;;;;;;4.59;100.00;99768.38;5074462;28;20032;-71
2021/12/27 09:09:07;;;;;;;40.55;25.60;;;;;;;4.71;100.00;99772.00;5074381;28;20052;-67
2021/12/27 09:11:32;;;;;;;40.70;25.25;;;;;;;4.94;100.00;99776.63;5074351;28;20107;-67
2021/12/27 09:13:58;;;;;;;36.15;22.98;;;;;;;5.06;100.00;99776.72;5074255;28;20024;-69
2021/12/27 09:16:23;;;;;;;33.45;20.55;;;;;;;5.17;100.00;99773.31;5074209;28;20028;-67
2021/12/27 09:18:49;;;;;;;33.50;20.30;;;;;;;5.18;100.00;99775.97;5074221;28;20043;-67
2021/12/27 09:21:17;;;;;;;32.03;20.17;;;;;;;5.04;100.00;99775.84;5074207;28;20550;-66
2021/12/27 09:23:42;;;;;;;33.65;20.10;;;;;;;4.99;100.00;99782.75;5074007;28;20033;-66
2021/12/27 09:26:07;;;;;;;32.95;20.33;;;;;;;5.05;100.00;99787.19;5074348;28;20082;-69
2021/12/27 09:28:33;;;;;;;32.40;19.02;;;;;;;5.10;100.00;99792.47;5074094;28;20513;-67
2021/12/27 09:30:59;;;;;;;31.10;18.42;;;;;;;5.14;100.00;99786.41;5074273;28;20032;-69
2021/12/27 09:33:25;;;;;;;32.63;18.73;;;;;;;5.20;100.00;99779.50;5074385;28;20437;-66
2021/12/27 09:35:50;;;;;;;32.70;19.85;;;;;;;5.25;100.00;99769.03;5072658;28;20024;-67
2021/12/27 09:38:16;;;;;;;31.05;18.40;;;;;;;5.22;100.00;99767.28;5071113;28;20642;-65
2021/12/27 09:40:41;;;;;;;31.83;18.25;;;;;;;5.13;100.00;99761.09;5069034;28;20032;-74
2021/12/27 09:43:08;;;;;;;31.00;18.02;;;;;;;5.07;100.00;99777.63;5069685;28;20118;-72
2021/12/27 09:45:34;;;;;;;31.40;18.88;;;;;;;5.03;100.00;99771.47;5069997;28;20023;-68
2021/12/27 09:47:59;;;;;;;31.67;18.38;;;;;;;5.07;100.00;99761.91;5071008;28;20409;-69
2021/12/27 09:50:30;;;;;;;31.48;18.25;;;;;;;5.17;100.00;99763.75;5069629;28;20463;-70
2021/12/27 09:52:55;;;;;;;30.60;18.23;;;;;;;5.19;100.00;99758.50;5070959;28;20400;-69
2021/12/27 09:55:21;;;;;;;32.15;18.63;;;;;;;5.29;100.00;99760.34;5072566;28;20020;-70
2021/12/27 09:57:46;;;;;;;29.75;17.35;;;;;;;5.37;100.00;99763.03;5072289;28;20027;-68
2021/12/27 10:00:12;;;;;;;30.13;17.00;;;;;;;5.36;100.00;99758.69;5070244;28;20060;-68
2021/12/27 10:02:39;;;;;;;30.65;17.45;;;;;;;5.46;100.00;99768.38;5072120;28;20545;-69
2021/12/27 10:05:05;;;;;;;29.33;16.70;;;;;;;5.52;100.00;99744.81;5072125;28;20029;-68
2021/12/27 10:07:30;;;;;;;28.15;16.13;;;;;;;5.65;100.00;99750.13;5072311;28;20433;-68
2021/12/27 10:09:59;;;;;;;27.50;15.90;;;;;;;6.01;100.00;99731.16;5071879;28;20039;-68
2021/12/27 10:12:26;;;;;;;27.85;15.45;;;;;;;6.14;100.00;99711.09;5071967;28;20024;-68
2021/12/27 10:14:59;;;;;;;26.63;14.90;;;;;;;6.00;100.00;99712.78;5069413;28;20522;-75
2021/12/27 10:17:25;;;;;;;26.88;15.00;;;;;;;5.80;100.00;99728.41;5070163;28;20028;-71
2021/12/27 10:19:53;;;;;;;26.77;14.98;;;;;;;5.78;100.00;99722.25;5070733;28;20044;-69
2021/12/27 10:22:19;;;;;;;27.27;14.70;;;;;;;5.81;100.00;99724.88;5069371;28;20071;-69
2021/12/27 10:24:45;;;;;;;27.45;14.95;;;;;;;5.91;100.00;99727.59;5072333;28;20029;-69
2021/12/27 10:27:10;;;;;;;27.23;15.35;;;;;;;6.07;100.00;99733.81;5069049;28;20115;-71
2021/12/27 10:29:39;;;;;;;26.27;14.32;;;;;;;6.30;100.00;99740.03;5072649;28;20171;-67
2021/12/27 10:32:10;;;;;;;26.38;14.25;;;;;;;6.41;100.00;99738.34;5072829;28;20032;-67
2021/12/27 10:34:47;;;;;;;31.38;18.42;;;;;;;6.54;100.00;99727.00;5072471;28;20036;-67
2021/12/27 10:37:15;;;;;;;26.15;13.98;;;;;;;6.64;100.00;99725.28;5069201;28;20047;-67
2021/12/27 10:39:50;;;;;;;24.92;13.38;;;;;;;6.84;100.00;99721.81;5068641;28;20039;-69
2021/12/27 10:42:37;;;;;;;26.10;13.75;;;;;;;6.89;100.00;99718.31;5066794;28;20107;-69
2021/12/27 10:45:12;;;;;;;24.45;12.55;;;;;;;6.86;100.00;99720.94;5064606;28;20113;-69
2021/12/27 10:47:41;;;;;;;25.77;13.57;;;;;;;6.96;100.00;99714.84;5064574;28;20301;-69
2021/12/27 10:50:18;;;;;;;25.05;13.68;;;;;;;7.18;100.00;99717.47;5066255;28;20029;-69
2021/12/27 10:52:46;;;;;;;25.70;13.00;;;;;;;7.46;100.00;99714.84;5065582;28;20048;-72
2021/12/27 10:55:14;;;;;;;24.65;13.40;;;;;;;7.75;100.00;99716.56;5070917;28;20422;-67
2021/12/27 10:57:40;;;;;;;26.30;14.30;;;;;;;7.82;100.00;99706.00;5071213;28;20036;-70
2021/12/27 11:00:22;;;;;;;23.85;11.90;;;;;;;7.84;100.00;99712.13;5070868;28;20027;-67
2021/12/27 11:02:48;;;;;;;25.23;13.43;;;;;;;7.65;100.00;99708.66;5069053;28;20091;-66
2021/12/27 11:05:16;;;;;;;25.17;13.13;;;;;;;7.62;100.00;99713.94;5071302;28;20063;-66
2021/12/27 11:07:41;;;;;;;26.00;14.00;;;;;;;7.64;100.00;99706.91;5070657;28;20074;-70
2021/12/27 11:10:07;;;;;;;24.23;12.13;;;;;;;7.60;100.00;99696.38;5070023;28;20460;-70
2021/12/27 11:12:33;;;;;;;23.80;12.55;;;;;;;7.55;100.00;99706.94;5071189;28;20027;-71
2021/12/27 11:14:58;;;;;;;25.48;12.27;;;;;;;7.43;100.00;99699.06;5070883;28;20021;-70
2021/12/27 11:17:23;;;;;;;23.80;12.60;;;;;;;7.33;100.00;99708.72;5070942;28;20028;-70